Torbali, Turkey
Current Conditions -  °F | °C
As of 6:50 AM on Monday 24 Nov 2014 (Local Time) from LTBJ Reporting Station
Clear Clear  
Wind Chill: 41°   Ceiling: Unl
Heat Index: 46°   Visibility: 6mi
Dew Point: 34°   Wind: 13mph
Humidity: 62%   Direction: 20°NNE
Pressure: 30.12"   Gusts: NA
Location:  38.17°N, 27.36°E
Report Text: LTBJ 240350Z 02011KT CAVOK 08/01 Q1020 NOSIG
Loading
Personal Weather Stations






























Interactive Weather Map New forecast layout! Learn more

10-Day Weather Forecast

Advertisements
Track Severe Weather on mobile